Time;durP1;ratioP1;P1;durP2;ratioP2;P2;SDS_P1;SDS_P2;PMS_P1;PMS_P2;Temp;Humidity;BMP_temperature;BMP_pressure;BME280_temperature;BME280_humidity;BME280_pressure;Samples;Min_cycle;Max_cycle;Signal;HPM_P1;HPM_P2
2022/12/23 00:00:04;;;;;;;7.38;1.55;;;8.50;99.90;;;;;;5074814;28;20048;-42
2022/12/23 00:02:30;;;;;;;6.13;1.50;;;8.50;99.90;;;;;;5074598;28;20036;-42
2022/12/23 00:04:56;;;;;;;5.32;1.70;;;8.50;99.90;;;;;;5074641;28;20032;-42
2022/12/23 00:07:21;;;;;;;5.70;1.40;;;8.50;99.90;;;;;;5074484;28;20064;-40
2022/12/23 00:09:47;;;;;;;4.20;1.65;;;8.50;99.90;;;;;;5074604;28;20119;-41
2022/12/23 00:15:06;;;;;;;4.57;1.25;;;8.50;99.90;;;;;;5074842;28;20063;-42
2022/12/23 00:17:44;;;;;;;5.97;1.70;;;8.50;99.90;;;;;;5074237;28;20036;-42
2022/12/23 00:20:12;;;;;;;4.72;1.90;;;8.50;99.90;;;;;;5074365;28;20389;-41
2022/12/23 00:25:39;;;;;;;3.17;1.40;;;8.50;99.90;;;;;;5074332;28;20086;-41
2022/12/23 00:28:05;;;;;;;3.97;1.48;;;8.50;99.90;;;;;;5074501;28;20032;-42
2022/12/23 00:30:31;;;;;;;5.70;1.30;;;8.50;99.90;;;;;;5074205;28;20089;-42
2022/12/23 00:32:56;;;;;;;4.10;1.55;;;8.50;99.90;;;;;;5074155;28;20424;-41
2022/12/23 00:35:22;;;;;;;4.10;1.40;;;8.50;99.90;;;;;;5074068;28;20047;-42
2022/12/23 00:37:47;;;;;;;2.33;1.20;;;8.60;99.90;;;;;;5074484;28;20392;-42
2022/12/23 00:42:59;;;;;;;3.72;1.30;;;8.60;99.90;;;;;;5073919;28;20128;-42
2022/12/23 00:45:25;;;;;;;4.15;1.40;;;8.60;99.90;;;;;;5072869;28;20067;-38
2022/12/23 00:50:38;;;;;;;2.90;1.00;;;8.50;99.90;;;;;;5074045;28;20439;-40
2022/12/23 00:53:04;;;;;;;3.85;1.02;;;8.50;99.90;;;;;;5075807;28;20497;-42
2022/12/23 00:55:30;;;;;;;3.50;1.05;;;8.50;99.90;;;;;;5073580;28;20039;-41
2022/12/23 00:57:56;;;;;;;3.10;1.30;;;8.50;99.90;;;;;;5073433;28;20033;-42
2022/12/23 01:05:35;;;;;;;3.63;0.90;;;8.50;99.90;;;;;;5073681;28;20025;-40
2022/12/23 01:06:01;;;;;;;1.95;0.80;;;8.60;99.90;;;;;;5073488;28;20109;-41
2022/12/23 01:08:27;;;;;;;3.22;0.93;;;8.50;99.90;;;;;;5074682;28;20052;-40
2022/12/23 01:10:53;;;;;;;3.92;0.95;;;8.50;99.90;;;;;;5073934;28;20025;-41
2022/12/23 01:13:20;;;;;;;1.83;0.90;;;8.60;99.90;;;;;;5073889;28;20086;-38
2022/12/23 01:15:45;;;;;;;1.42;0.70;;;8.50;99.90;;;;;;5073163;28;20538;-41
2022/12/23 01:18:11;;;;;;;1.27;0.80;;;8.50;99.90;;;;;;5073393;28;20042;-41
2022/12/23 01:20:37;;;;;;;2.28;0.95;;;8.50;99.90;;;;;;5073010;28;20028;-41
2022/12/23 01:23:03;;;;;;;1.77;0.60;;;8.50;99.90;;;;;;5073620;28;20035;-39
2022/12/23 01:25:30;;;;;;;1.58;0.80;;;8.50;99.90;;;;;;5073022;28;20028;-40
2022/12/23 01:27:55;;;;;;;1.27;0.60;;;8.60;99.90;;;;;;5073150;28;20074;-43
2022/12/23 01:30:21;;;;;;;1.17;0.60;;;8.50;99.90;;;;;;5073525;28;20029;-42
2022/12/23 01:32:47;;;;;;;1.63;0.90;;;8.60;99.90;;;;;;5073163;28;20064;-43
2022/12/23 01:35:12;;;;;;;1.15;0.70;;;8.60;99.90;;;;;;5073580;28;20020;-42
2022/12/23 01:37:41;;;;;;;1.38;0.70;;;8.60;99.90;;;;;;5072954;28;20035;-43
2022/12/23 01:40:07;;;;;;;1.13;0.60;;;8.60;99.90;;;;;;5071991;28;20024;-40
2022/12/23 01:42:45;;;;;;;2.78;0.75;;;8.60;99.90;;;;;;5072988;28;20075;-40
2022/12/23 01:45:23;;;;;;;1.17;0.60;;;8.50;99.90;;;;;;5073304;28;20067;-43
2022/12/23 01:48:09;;;;;;;1.10;0.60;;;8.60;99.90;;;;;;5072688;28;20131;-38
2022/12/23 01:50:43;;;;;;;0.88;0.60;;;8.60;99.90;;;;;;5072702;28;20044;-42
2022/12/23 01:53:18;;;;;;;2.55;0.57;;;8.60;99.90;;;;;;5072761;28;20113;-42
2022/12/23 01:55:53;;;;;;;1.00;0.60;;;8.60;99.90;;;;;;5072059;28;20032;-40
2022/12/23 01:58:25;;;;;;;0.93;0.60;;;8.60;99.90;;;;;;5072980;28;20505;-40
2022/12/23 02:03:42;;;;;;;0.98;0.40;;;8.60;99.90;;;;;;5072676;28;20086;-42
2022/12/23 02:12:00;;;;;;;0.95;0.35;;;8.60;99.90;;;;;;5072558;28;20074;-42
2022/12/23 02:17:36;;;;;;;0.95;0.40;;;8.60;99.90;;;;;;5071750;28;20031;-40
2022/12/23 02:20:35;;;;;;;0.73;0.60;;;8.60;99.90;;;;;;5071892;28;20020;-39
2022/12/23 02:23:19;;;;;;;0.70;0.50;;;8.60;99.90;;;;;;5071822;28;20536;-40
2022/12/23 02:25:56;;;;;;;1.50;0.60;;;8.60;99.90;;;;;;5072024;28;20095;-41
2022/12/23 02:29:18;;;;;;;0.65;0.50;;;8.60;99.90;;;;;;5071948;28;20032;-42
2022/12/23 02:31:53;;;;;;;0.45;0.35;;;8.60;99.90;;;;;;5012515;28;20133;-42
2022/12/23 02:34:20;;;;;;;0.60;0.38;;;8.60;99.90;;;;;;5051540;28;20025;-42
2022/12/23 02:36:56;;;;;;;0.68;0.40;;;8.60;99.90;;;;;;5071680;28;20029;-42
2022/12/23 02:39:46;;;;;;;0.90;0.47;;;8.60;99.90;;;;;;5071726;28;20484;-43
2022/12/23 02:42:16;;;;;;;0.65;0.40;;;8.60;99.90;;;;;;5071703;28;20027;-39
2022/12/23 02:45:09;;;;;;;1.15;0.40;;;8.60;99.90;;;;;;5071844;28;20432;-42
2022/12/23 02:48:00;;;;;;;0.30;0.30;;;8.60;99.90;;;;;;5071442;28;20024;-42
2022/12/23 02:50:32;;;;;;;0.50;0.32;;;8.60;99.90;;;;;;5066159;28;20385;-43
2022/12/23 02:53:05;;;;;;;0.65;0.40;;;8.60;99.90;;;;;;5071942;28;20675;-41
2022/12/23 02:55:34;;;;;;;0.82;0.25;;;8.60;99.90;;;;;;5071386;28;20047;-40
2022/12/23 02:58:04;;;;;;;0.75;0.40;;;8.60;99.90;;;;;;5071900;28;20062;-42
2022/12/23 03:00:31;;;;;;;3.75;0.38;;;8.60;99.90;;;;;;5072088;28;20032;-42
2022/12/23 03:02:56;;;;;;;0.85;0.32;;;8.60;99.90;;;;;;5071432;28;20024;-42
2022/12/23 03:05:25;;;;;;;0.75;0.50;;;8.60;99.90;;;;;;5071434;28;20126;-42
2022/12/23 03:07:53;;;;;;;0.20;0.20;;;8.60;99.90;;;;;;5070493;28;20050;-41
2022/12/23 03:10:37;;;;;;;0.40;0.30;;;8.60;99.90;;;;;;5071365;28;20024;-40
2022/12/23 03:13:29;;;;;;;0.40;0.40;;;8.60;99.90;;;;;;5071497;28;20052;-41
2022/12/23 03:16:21;;;;;;;0.70;0.43;;;8.60;99.90;;;;;;5072553;28;20036;-43
2022/12/23 03:18:55;;;;;;;1.05;0.73;;;8.60;99.90;;;;;;5071666;28;20060;-42
2022/12/23 03:21:25;;;;;;;0.50;0.30;;;8.60;99.90;;;;;;5069827;28;20024;-42
2022/12/23 03:24:27;;;;;;;0.30;0.30;;;8.60;99.90;;;;;;5071077;28;20496;-42
2022/12/23 03:27:25;;;;;;;0.38;0.30;;;8.60;99.90;;;;;;5070861;28;20021;-42
2022/12/23 03:29:51;;;;;;;0.50;0.30;;;8.60;99.90;;;;;;5057924;28;20032;-42
2022/12/23 03:32:18;;;;;;;1.17;0.25;;;8.60;99.90;;;;;;5071247;28;20047;-42
2022/12/23 03:34:48;;;;;;;0.30;0.30;;;8.60;99.90;;;;;;5071149;28;20070;-42
2022/12/23 03:37:17;;;;;;;0.17;0.17;;;8.60;99.90;;;;;;5071148;28;20103;-43
2022/12/23 03:39:51;;;;;;;0.60;0.40;;;8.60;99.90;;;;;;5071255;28;20059;-40
2022/12/23 03:42:24;;;;;;;0.30;0.20;;;8.60;99.90;;;;;;5071009;28;20046;-40
2022/12/23 03:44:52;;;;;;;0.35;0.30;;;8.60;99.90;;;;;;5071338;28;20436;-41
2022/12/23 03:47:45;;;;;;;0.30;0.30;;;8.60;99.90;;;;;;5070707;28;20071;-41
2022/12/23 03:50:14;;;;;;;0.32;0.22;;;8.60;99.90;;;;;;5062796;28;20041;-43
2022/12/23 03:52:48;;;;;;;0.45;0.30;;;8.60;99.90;;;;;;5070938;28;20028;-41
2022/12/23 03:55:20;;;;;;;0.60;0.40;;;8.60;99.90;;;;;;5070890;28;20044;-42
2022/12/23 03:57:54;;;;;;;0.75;0.40;;;8.60;99.90;;;;;;5070850;28;20056;-42
2022/12/23 04:00:20;;;;;;;0.40;0.30;;;8.60;99.90;;;;;;5070899;28;20026;-43
2022/12/23 04:03:04;;;;;;;0.10;0.10;;;8.60;99.90;;;;;;5070825;28;20101;-42
2022/12/23 04:05:35;;;;;;;0.63;0.40;;;8.60;99.90;;;;;;5070878;28;20079;-42
2022/12/23 04:08:09;;;;;;;0.30;0.20;;;8.60;99.90;;;;;;5070862;28;20102;-40
2022/12/23 04:10:34;;;;;;;0.43;0.32;;;8.60;99.90;;;;;;5070917;28;20078;-39
2022/12/23 04:13:00;;;;;;;0.30;0.30;;;8.60;99.90;;;;;;5070747;28;20484;-40
2022/12/23 04:15:26;;;;;;;0.30;0.30;;;8.60;99.90;;;;;;5070573;28;20028;-41
2022/12/23 04:17:54;;;;;;;0.40;0.20;;;8.60;99.90;;;;;;5070885;28;20493;-41
2022/12/23 04:20:21;;;;;;;0.30;0.22;;;8.60;99.90;;;;;;5074380;28;20032;-42
2022/12/23 04:22:46;;;;;;;0.50;0.40;;;8.60;99.90;;;;;;5074280;28;20028;-41
2022/12/23 04:25:14;;;;;;;0.40;0.30;;;8.60;99.90;;;;;;5074448;28;20021;-43
2022/12/23 04:27:40;;;;;;;0.38;0.30;;;8.60;99.90;;;;;;5074192;28;20041;-41
2022/12/23 04:30:07;;;;;;;0.35;0.30;;;8.60;99.90;;;;;;5074877;28;20032;-42
2022/12/23 04:32:33;;;;;;;0.50;0.30;;;8.60;99.90;;;;;;5074548;28;20016;-41
2022/12/23 04:34:59;;;;;;;0.70;0.50;;;8.60;99.90;;;;;;5074352;28;20379;-42
2022/12/23 04:37:25;;;;;;;0.32;0.32;;;8.60;99.90;;;;;;5074015;28;20029;-43
2022/12/23 04:39:50;;;;;;;2.67;0.30;;;8.60;99.90;;;;;;5074107;28;20059;-42
2022/12/23 04:42:16;;;;;;;0.40;0.30;;;8.60;99.90;;;;;;5074046;28;20036;-41
2022/12/23 04:44:42;;;;;;;0.68;0.40;;;8.60;99.90;;;;;;5075243;28;20028;-43
2022/12/23 04:47:07;;;;;;;0.45;0.40;;;8.60;99.90;;;;;;5073681;28;20024;-42
2022/12/23 04:49:33;;;;;;;0.40;0.40;;;8.60;99.90;;;;;;5074025;28;20024;-42
2022/12/23 04:51:58;;;;;;;0.30;0.30;;;8.60;99.90;;;;;;5073987;28;20032;-41
2022/12/23 04:54:24;;;;;;;0.50;0.40;;;8.60;99.90;;;;;;5073745;28;20028;-43
2022/12/23 04:56:50;;;;;;;0.50;0.40;;;8.60;99.90;;;;;;5073666;28;20028;-42
2022/12/23 04:59:15;;;;;;;0.55;0.40;;;8.60;99.90;;;;;;5073601;28;20024;-43
2022/12/23 05:01:41;;;;;;;0.30;0.30;;;8.60;99.90;;;;;;5073793;28;20478;-42
2022/12/23 05:04:08;;;;;;;0.40;0.30;;;8.60;99.90;;;;;;5073622;28;20035;-42
2022/12/23 05:06:35;;;;;;;0.47;0.40;;;8.60;99.90;;;;;;5073417;28;20454;-42
2022/12/23 05:09:01;;;;;;;0.40;0.40;;;8.60;99.90;;;;;;5073572;28;20020;-43
2022/12/23 05:11:26;;;;;;;0.50;0.40;;;8.60;99.90;;;;;;5073393;28;20147;-41
2022/12/23 05:13:52;;;;;;;1.05;0.30;;;8.60;99.90;;;;;;5073244;28;20032;-39
2022/12/23 05:16:17;;;;;;;0.40;0.32;;;8.60;99.90;;;;;;5073051;28;20482;-41
2022/12/23 05:18:46;;;;;;;0.47;0.40;;;8.60;99.90;;;;;;5073296;28;20032;-40
2022/12/23 05:21:12;;;;;;;0.50;0.40;;;8.60;99.90;;;;;;5072949;28;20078;-42
2022/12/23 05:23:38;;;;;;;0.55;0.40;;;8.60;99.90;;;;;;5074639;28;20028;-43
2022/12/23 05:26:03;;;;;;;0.63;0.40;;;8.60;99.90;;;;;;5073337;28;20031;-43
2022/12/23 05:28:29;;;;;;;0.25;0.25;;;8.60;99.90;;;;;;5073453;28;20469;-41
2022/12/23 05:31:03;;;;;;;0.60;0.50;;;8.60;99.90;;;;;;5072347;28;20055;-40
2022/12/23 05:33:29;;;;;;;0.93;0.32;;;8.60;99.90;;;;;;5073610;28;20218;-41
2022/12/23 05:35:55;;;;;;;0.45;0.40;;;8.60;99.90;;;;;;5072667;28;20145;-42
2022/12/23 05:38:20;;;;;;;4.82;0.50;;;8.60;99.90;;;;;;5072968;28;20032;-40
2022/12/23 05:40:47;;;;;;;0.50;0.32;;;8.60;99.90;;;;;;5073102;28;20386;-43
2022/12/23 05:43:13;;;;;;;0.40;0.40;;;8.60;99.90;;;;;;5072758;28;20030;-40
2022/12/23 05:45:38;;;;;;;0.73;0.30;;;8.60;99.90;;;;;;5072780;28;20024;-41
2022/12/23 05:48:04;;;;;;;0.68;0.45;;;8.60;99.90;;;;;;5072927;28;20410;-41
2022/12/23 05:50:30;;;;;;;0.40;0.32;;;8.60;99.90;;;;;;5073162;28;20070;-41
2022/12/23 05:52:56;;;;;;;0.75;0.45;;;8.60;99.90;;;;;;5072680;28;20073;-41
2022/12/23 05:55:25;;;;;;;0.30;0.30;;;8.60;99.90;;;;;;5072448;28;20032;-39
2022/12/23 05:57:51;;;;;;;2.65;0.47;;;8.60;99.90;;;;;;5072239;28;20482;-40
2022/12/23 06:00:18;;;;;;;0.20;0.20;;;8.60;99.90;;;;;;5072884;28;20039;-40
2022/12/23 06:02:43;;;;;;;0.65;0.40;;;8.60;99.90;;;;;;5072385;28;20028;-41
2022/12/23 06:05:10;;;;;;;0.30;0.30;;;8.60;99.90;;;;;;5072271;28;20081;-40
2022/12/23 06:07:36;;;;;;;1.63;0.40;;;8.60;99.90;;;;;;5072527;28;20024;-40
2022/12/23 06:10:03;;;;;;;0.35;0.35;;;8.60;99.90;;;;;;5072333;28;20028;-41
2022/12/23 06:12:29;;;;;;;0.40;0.40;;;8.60;99.90;;;;;;5072110;28;20482;-43
2022/12/23 06:14:54;;;;;;;0.50;0.40;;;8.60;99.90;;;;;;5072207;28;20033;-39
2022/12/23 06:17:20;;;;;;;0.68;0.50;;;8.60;99.90;;;;;;5071904;28;20029;-41
2022/12/23 06:19:46;;;;;;;0.47;0.40;;;8.60;99.90;;;;;;5071692;28;20122;-41
2022/12/23 06:22:12;;;;;;;0.40;0.35;;;8.60;99.90;;;;;;5073003;28;20071;-40
2022/12/23 06:24:38;;;;;;;0.45;0.40;;;8.60;99.90;;;;;;5072195;28;20074;-40
2022/12/23 06:27:04;;;;;;;0.35;0.30;;;8.60;99.90;;;;;;5071587;28;20478;-43
2022/12/23 06:29:29;;;;;;;0.40;0.30;;;8.60;99.90;;;;;;5071838;28;20035;-41
2022/12/23 06:31:55;;;;;;;0.30;0.30;;;8.60;99.90;;;;;;5070865;28;20106;-41
2022/12/23 06:34:21;;;;;;;0.35;0.35;;;8.60;99.90;;;;;;5071854;28;20070;-40
2022/12/23 06:36:46;;;;;;;0.40;0.30;;;8.60;99.90;;;;;;5071514;28;20098;-39
2022/12/23 06:39:12;;;;;;;0.63;0.50;;;8.60;99.90;;;;;;5071799;28;20103;-41
2022/12/23 06:41:38;;;;;;;0.57;0.47;;;8.60;99.90;;;;;;5071665;28;20024;-42
2022/12/23 06:44:04;;;;;;;0.32;0.32;;;8.60;99.90;;;;;;5071508;28;20028;-43
2022/12/23 06:46:30;;;;;;;0.60;0.40;;;8.60;99.90;;;;;;5071517;28;20103;-40
2022/12/23 06:48:55;;;;;;;0.35;0.35;;;8.60;99.90;;;;;;5071661;28;20059;-39
2022/12/23 06:51:21;;;;;;;0.40;0.38;;;8.60;99.90;;;;;;5071761;28;20045;-40
2022/12/23 06:53:46;;;;;;;0.30;0.30;;;8.60;99.90;;;;;;5071644;28;20478;-40
2022/12/23 06:56:12;;;;;;;0.55;0.50;;;8.60;99.90;;;;;;5071125;28;20170;-41
2022/12/23 06:58:38;;;;;;;0.60;0.40;;;8.60;99.90;;;;;;5071404;28;20487;-40
2022/12/23 07:01:03;;;;;;;0.50;0.30;;;8.60;99.90;;;;;;5071686;28;20040;-41
2022/12/23 07:03:29;;;;;;;0.30;0.30;;;8.60;99.90;;;;;;5071704;28;20039;-40
2022/12/23 07:05:55;;;;;;;0.50;0.40;;;8.60;99.90;;;;;;5071138;28;20025;-41
2022/12/23 07:08:20;;;;;;;0.30;0.30;;;8.60;99.90;;;;;;5071323;28;20099;-41
2022/12/23 07:10:46;;;;;;;0.32;0.32;;;8.60;99.90;;;;;;5071301;28;20025;-41
2022/12/23 07:13:12;;;;;;;0.40;0.35;;;8.60;99.90;;;;;;5071254;28;20029;-41
2022/12/23 07:15:38;;;;;;;0.35;0.35;;;8.60;99.90;;;;;;5071259;28;20038;-41
2022/12/23 07:18:04;;;;;;;0.40;0.40;;;8.60;99.90;;;;;;5070988;28;20028;-40
2022/12/23 07:20:30;;;;;;;0.50;0.50;;;8.60;99.90;;;;;;5071286;28;20025;-40
2022/12/23 07:22:56;;;;;;;0.35;0.35;;;8.60;99.90;;;;;;5072810;28;20067;-43
2022/12/23 07:25:23;;;;;;;0.55;0.40;;;8.60;99.90;;;;;;5071141;28;20016;-40
2022/12/23 07:27:55;;;;;;;0.57;0.47;;;8.60;99.90;;;;;;5070971;28;20448;-39
2022/12/23 07:30:22;;;;;;;0.40;0.40;;;8.60;99.90;;;;;;5071220;28;20025;-40
2022/12/23 07:32:51;;;;;;;0.55;0.45;;;8.60;99.90;;;;;;5071185;28;20021;-43
2022/12/23 07:35:18;;;;;;;0.65;0.30;;;8.60;99.90;;;;;;5071130;28;20474;-40
2022/12/23 07:37:43;;;;;;;0.93;0.40;;;8.60;99.90;;;;;;5069450;28;20028;-42
2022/12/23 07:40:10;;;;;;;2.10;0.75;;;8.60;99.90;;;;;;5071058;28;20025;-42
2022/12/23 07:42:36;;;;;;;0.80;0.50;;;8.60;99.90;;;;;;5071519;28;20362;-43
2022/12/23 07:45:03;;;;;;;0.95;0.73;;;8.60;99.90;;;;;;5074048;28;20028;-40
2022/12/23 07:47:29;;;;;;;1.30;0.98;;;8.60;99.90;;;;;;5071028;28;20074;-39
2022/12/23 07:49:54;;;;;;;1.10;0.80;;;8.60;99.90;;;;;;5071551;28;20020;-42
2022/12/23 07:52:20;;;;;;;1.52;0.93;;;8.60;99.90;;;;;;5071032;28;20032;-42
2022/12/23 07:54:46;;;;;;;3.22;1.40;;;8.60;99.90;;;;;;5074132;28;20039;-43
2022/12/23 07:57:11;;;;;;;2.45;1.17;;;8.60;99.90;;;;;;5074938;28;20028;-42
2022/12/23 07:59:37;;;;;;;2.60;1.40;;;8.60;99.90;;;;;;5075179;28;20029;-40
2022/12/23 08:02:02;;;;;;;3.72;1.50;;;8.60;99.90;;;;;;5074855;28;20474;-42
2022/12/23 08:04:28;;;;;;;4.53;1.83;;;8.60;99.90;;;;;;5074701;28;20108;-42
2022/12/23 08:06:56;;;;;;;3.15;1.80;;;8.60;99.90;;;;;;5074470;28;20040;-40
2022/12/23 08:09:22;;;;;;;3.00;1.60;;;8.60;99.90;;;;;;5074555;28;20028;-42
2022/12/23 08:11:48;;;;;;;3.13;1.63;;;8.60;99.90;;;;;;5074545;28;20046;-42
2022/12/23 08:14:13;;;;;;;3.25;1.50;;;8.60;99.90;;;;;;5076362;28;20029;-43
2022/12/23 08:16:39;;;;;;;3.35;2.00;;;8.60;99.90;;;;;;5075100;28;20051;-42
2022/12/23 08:19:04;;;;;;;3.95;2.17;;;8.60;99.90;;;;;;5074490;28;20074;-42
2022/12/23 08:21:30;;;;;;;3.70;2.13;;;8.60;99.90;;;;;;5074433;28;20035;-42
2022/12/23 08:23:55;;;;;;;3.03;1.73;;;8.60;99.90;;;;;;5074126;28;20028;-42
2022/12/23 08:26:23;;;;;;;3.88;2.00;;;8.60;99.90;;;;;;5072615;28;20048;-44
2022/12/23 08:28:52;;;;;;;7.10;2.30;;;8.60;99.90;;;;;;5074261;28;20253;-44
2022/12/23 08:31:26;;;;;;;5.47;2.60;;;8.70;99.90;;;;;;5074348;28;20016;-44
2022/12/23 08:33:54;;;;;;;3.88;2.30;;;8.70;99.90;;;;;;5074675;28;20024;-45
2022/12/23 08:36:23;;;;;;;4.20;2.22;;;8.70;99.90;;;;;;5073675;28;20032;-45
2022/12/23 08:38:50;;;;;;;3.53;2.38;;;8.70;99.90;;;;;;5074009;28;20021;-45
2022/12/23 08:41:19;;;;;;;3.97;2.20;;;8.70;99.90;;;;;;5074104;28;20614;-44
2022/12/23 08:43:44;;;;;;;4.00;2.53;;;8.70;99.90;;;;;;5073863;28;20029;-44
2022/12/23 08:46:11;;;;;;;4.72;1.95;;;8.70;99.90;;;;;;5073636;28;20028;-44
2022/12/23 08:48:37;;;;;;;3.92;2.45;;;8.70;99.90;;;;;;5073961;28;20020;-44
2022/12/23 08:51:09;;;;;;;3.50;2.53;;;8.70;99.90;;;;;;5073647;28;20028;-44
2022/12/23 08:53:36;;;;;;;5.82;2.72;;;8.80;99.90;;;;;;5072664;28;20028;-44
2022/12/23 08:56:15;;;;;;;4.10;3.17;;;8.80;99.90;;;;;;5073618;28;20428;-43
2022/12/23 08:58:44;;;;;;;6.32;2.70;;;8.80;99.90;;;;;;5073725;28;20398;-44
2022/12/23 09:01:11;;;;;;;5.18;2.60;;;8.90;99.90;;;;;;5073662;28;20029;-44
2022/12/23 09:03:38;;;;;;;3.83;2.10;;;8.90;99.90;;;;;;5073407;28;20542;-44
2022/12/23 09:06:09;;;;;;;5.05;2.20;;;8.90;99.90;;;;;;5072065;28;20031;-45
2022/12/23 09:08:35;;;;;;;3.47;2.20;;;9.00;99.90;;;;;;5073449;28;20028;-44
2022/12/23 09:11:01;;;;;;;5.72;2.40;;;9.00;99.90;;;;;;5073492;28;20032;-43
2022/12/23 09:13:27;;;;;;;2.97;2.55;;;9.10;99.90;;;;;;5073486;28;20444;-44
2022/12/23 09:15:53;;;;;;;5.47;3.90;;;9.10;99.90;;;;;;5073265;28;20021;-44
2022/12/23 09:18:19;;;;;;;7.30;5.63;;;9.20;99.90;;;;;;5073380;28;20016;-44
2022/12/23 09:20:44;;;;;;;7.38;5.55;;;9.20;99.90;;;;;;5071950;28;20020;-44
2022/12/23 09:23:10;;;;;;;7.05;4.50;;;9.20;99.90;;;;;;5073146;28;20039;-44
2022/12/23 09:25:36;;;;;;;13.55;6.97;;;9.30;99.90;;;;;;5073111;28;20093;-44
2022/12/23 09:28:04;;;;;;;71.25;25.98;;;9.30;99.90;;;;;;5072846;28;20029;-45
2022/12/23 09:30:30;;;;;;;40.40;15.18;;;9.40;99.90;;;;;;5073009;28;20059;-46
2022/12/23 09:32:56;;;;;;;20.15;7.55;;;9.40;99.90;;;;;;5073271;28;20060;-44
2022/12/23 09:35:21;;;;;;;10.45;5.07;;;9.50;99.90;;;;;;5073048;28;20444;-44
2022/12/23 09:37:50;;;;;;;6.43;2.97;;;9.50;99.90;;;;;;5072793;28;20551;-44
2022/12/23 09:40:19;;;;;;;3.00;1.70;;;9.50;99.90;;;;;;5072969;28;20024;-44
2022/12/23 09:43:24;;;;;;;2.40;1.60;;;9.50;99.90;;;;;;5072670;28;20028;-44
2022/12/23 09:45:50;;;;;;;4.57;1.58;;;9.50;99.90;;;;;;5072563;28;20420;-44
2022/12/23 09:48:21;;;;;;;2.13;1.15;;;9.60;99.90;;;;;;5072867;28;20069;-43
2022/12/23 09:50:47;;;;;;;3.50;1.30;;;9.50;99.90;;;;;;5072826;28;20017;-43
2022/12/23 09:53:18;;;;;;;2.05;1.20;;;9.60;99.90;;;;;;5072789;28;20211;-43
2022/12/23 09:56:13;;;;;;;4.20;1.50;;;9.50;99.90;;;;;;5072587;28;20051;-44
2022/12/23 09:58:49;;;;;;;2.13;1.40;;;9.50;99.90;;;;;;5072737;28;20029;-43
2022/12/23 10:01:32;;;;;;;2.05;1.23;;;9.50;99.90;;;;;;5072698;28;20024;-44
2022/12/23 10:04:23;;;;;;;2.10;1.20;;;9.50;99.90;;;;;;5072376;28;20474;-44
2022/12/23 10:06:59;;;;;;;3.05;1.20;;;9.50;99.90;;;;;;5072109;28;20031;-44
2022/12/23 10:09:27;;;;;;;4.43;1.13;;;9.50;99.90;;;;;;5072430;28;20023;-44
2022/12/23 10:11:53;;;;;;;1.70;1.30;;;9.50;99.90;;;;;;5072388;28;20115;-44
2022/12/23 10:14:21;;;;;;;3.15;1.52;;;9.50;99.90;;;;;;5072179;28;20413;-43
2022/12/23 10:17:14;;;;;;;2.28;1.33;;;9.50;99.90;;;;;;5071670;28;20025;-43
2022/12/23 10:19:44;;;;;;;2.10;1.50;;;9.50;99.90;;;;;;5071719;28;20053;-44
2022/12/23 10:22:37;;;;;;;3.03;1.58;;;9.50;99.90;;;;;;5072158;28;20056;-43
2022/12/23 10:25:34;;;;;;;3.20;1.55;;;9.50;99.90;;;;;;5072059;28;20056;-43
2022/12/23 10:27:59;;;;;;;4.38;1.73;;;9.50;99.90;;;;;;5065670;28;20417;-43
2022/12/23 10:30:28;;;;;;;3.38;1.92;;;9.50;99.90;;;;;;5072069;28;20103;-44
2022/12/23 10:33:20;;;;;;;2.30;1.95;;;9.50;99.90;;;;;;5071948;28;20034;-44
2022/12/23 10:36:05;;;;;;;3.15;2.47;;;9.50;99.90;;;;;;5071717;28;20125;-43
2022/12/23 10:38:54;;;;;;;3.75;2.30;;;9.50;99.90;;;;;;5071845;28;20482;-44
2022/12/23 10:41:44;;;;;;;4.28;2.80;;;9.50;99.90;;;;;;5071753;28;20035;-44
2022/12/23 10:44:44;;;;;;;3.90;2.63;;;9.50;99.90;;;;;;5071682;28;20033;-44
2022/12/23 10:47:44;;;;;;;3.85;1.90;;;9.50;99.90;;;;;;5071461;28;20024;-43
2022/12/23 10:50:27;;;;;;;3.13;2.22;;;9.50;99.90;;;;;;5071663;28;20025;-43
2022/12/23 10:52:56;;;;;;;4.18;2.20;;;9.60;99.90;;;;;;5071775;28;20048;-44
2022/12/23 10:55:26;;;;;;;4.30;1.85;;;9.60;99.90;;;;;;5071487;28;20110;-44
2022/12/23 10:57:58;;;;;;;3.05;1.63;;;9.60;99.90;;;;;;5071420;28;20025;-44
2022/12/23 11:00:24;;;;;;;2.42;1.60;;;9.60;99.90;;;;;;5071511;28;20047;-44
2022/12/23 11:03:14;;;;;;;4.93;2.22;;;9.70;99.90;;;;;;5071439;28;20032;-44
2022/12/23 11:05:40;;;;;;;3.47;1.30;;;9.70;99.90;;;;;;5071349;28;20052;-44
2022/12/23 11:08:06;;;;;;;2.30;1.60;;;9.70;99.90;;;;;;5071351;28;20108;-44
2022/12/23 11:10:32;;;;;;;3.40;1.58;;;9.70;99.90;;;;;;5071362;28;20056;-43
2022/12/23 11:12:59;;;;;;;2.30;1.40;;;9.70;99.90;;;;;;5071348;28;20028;-44
2022/12/23 11:15:37;;;;;;;2.70;1.50;;;9.70;99.90;;;;;;5071320;28;20052;-44
2022/12/23 11:18:11;;;;;;;1.90;1.25;;;9.70;99.90;;;;;;5071136;28;20032;-44
2022/12/23 11:20:39;;;;;;;3.00;1.10;;;9.70;99.90;;;;;;5071162;28;20028;-44
2022/12/23 11:23:20;;;;;;;1.40;0.82;;;9.70;99.90;;;;;;5071114;28;20016;-44
2022/12/23 11:25:46;;;;;;;1.45;0.80;;;9.70;99.90;;;;;;5071037;28;20142;-44
2022/12/23 11:28:14;;;;;;;2.80;0.95;;;9.70;99.90;;;;;;5070443;28;20442;-43
2022/12/23 11:31:10;;;;;;;2.67;0.75;;;9.80;99.90;;;;;;5071209;28;20100;-45
2022/12/23 11:33:51;;;;;;;1.58;0.90;;;9.80;99.90;;;;;;5071081;28;20024;-44
2022/12/23 11:36:22;;;;;;;1.50;0.88;;;9.80;99.90;;;;;;5070914;28;20108;-44
2022/12/23 11:38:48;;;;;;;2.05;0.80;;;9.80;99.90;;;;;;5071165;28;20486;-45
2022/12/23 11:41:22;;;;;;;0.70;0.65;;;9.80;99.90;;;;;;5071189;28;20043;-44
2022/12/23 11:43:58;;;;;;;0.70;0.68;;;9.80;99.90;;;;;;5071029;28;20487;-44
2022/12/23 11:46:27;;;;;;;2.67;0.70;;;9.80;99.90;;;;;;5070817;28;20052;-44
2022/12/23 11:49:13;;;;;;;0.70;0.52;;;9.80;99.90;;;;;;5071134;28;20021;-45
2022/12/23 11:51:39;;;;;;;1.00;0.50;;;9.80;99.90;;;;;;5071133;28;20017;-44
2022/12/23 11:54:04;;;;;;;2.13;1.10;;;9.90;99.90;;;;;;5070926;28;20402;-44
2022/12/23 11:56:38;;;;;;;1.13;0.90;;;9.80;99.90;;;;;;5070674;28;20119;-44
2022/12/23 11:59:25;;;;;;;1.63;1.00;;;9.90;99.90;;;;;;5070956;28;20108;-44
2022/12/23 12:01:50;;;;;;;1.20;0.80;;;9.90;99.90;;;;;;5071022;28;20033;-44
2022/12/23 12:04:24;;;;;;;1.10;0.90;;;9.90;99.90;;;;;;5070950;28;20463;-44
2022/12/23 12:06:51;;;;;;;1.85;0.90;;;9.90;99.90;;;;;;5070480;28;20099;-45
2022/12/23 12:09:18;;;;;;;1.20;0.93;;;9.90;99.90;;;;;;5071268;28;20429;-45
2022/12/23 12:12:04;;;;;;;1.48;1.00;;;9.90;99.90;;;;;;5070769;28;20016;-44
2022/12/23 12:14:56;;;;;;;1.80;0.93;;;9.90;99.90;;;;;;5071114;28;20095;-45
2022/12/23 12:17:42;;;;;;;1.25;1.00;;;9.90;99.90;;;;;;5067188;28;20448;-44
2022/12/23 12:20:08;;;;;;;1.30;0.90;;;9.90;99.90;;;;;;5070990;28;20028;-44
2022/12/23 12:23:23;;;;;;;3.83;1.08;;;9.90;99.90;;;;;;5070641;28;20024;-44
2022/12/23 12:25:57;;;;;;;1.77;1.05;;;10.00;99.90;;;;;;5064985;28;20060;-44
2022/12/23 12:28:37;;;;;;;1.42;0.95;;;9.90;99.90;;;;;;5070675;28;20084;-44
2022/12/23 12:31:10;;;;;;;1.67;1.05;;;9.90;99.90;;;;;;5070984;28;20025;-44
2022/12/23 12:33:47;;;;;;;2.03;0.90;;;10.00;99.90;;;;;;5070579;28;20036;-43
2022/12/23 12:36:41;;;;;;;1.65;1.02;;;10.00;99.90;;;;;;5070224;28;20029;-45
2022/12/23 12:39:15;;;;;;;2.33;1.15;;;10.00;99.90;;;;;;5071157;28;20033;-44
2022/12/23 12:41:50;;;;;;;1.60;0.98;;;10.00;99.90;;;;;;5074161;28;20470;-45
2022/12/23 12:44:24;;;;;;;2.33;1.48;;;10.00;99.90;;;;;;5074429;28;20416;-44
2022/12/23 12:46:57;;;;;;;1.67;1.00;;;10.00;99.90;;;;;;5074102;28;20035;-44
2022/12/23 12:49:42;;;;;;;2.53;1.25;;;10.10;99.90;;;;;;5074373;28;20031;-44
2022/12/23 12:52:20;;;;;;;1.98;1.40;;;10.10;99.90;;;;;;5073973;28;20386;-44
2022/12/23 12:54:53;;;;;;;2.15;1.40;;;10.00;99.90;;;;;;5073680;28;20043;-44
2022/12/23 12:57:21;;;;;;;3.05;1.38;;;10.00;99.90;;;;;;5073627;28;20032;-44
2022/12/23 12:59:49;;;;;;;2.50;1.40;;;10.10;99.90;;;;;;5073942;28;20025;-44
2022/12/23 13:02:42;;;;;;;2.20;1.40;;;10.00;99.90;;;;;;5073760;28;20037;-45
2022/12/23 13:05:16;;;;;;;3.70;1.33;;;10.00;99.90;;;;;;5073639;28;20155;-44
2022/12/23 13:07:42;;;;;;;;;;;10.00;99.90;;;;;;5073836;28;20020;-44
2022/12/23 13:10:37;;;;;;;2.72;1.25;;;10.00;99.90;;;;;;5073647;28;20358;-44
2022/12/23 13:13:14;;;;;;;;;;;10.00;99.90;;;;;;5060590;28;20036;-44
2022/12/23 13:15:59;;;;;;;1.80;1.23;;;10.00;99.90;;;;;;5073359;28;19951;-44
2022/12/23 13:18:34;;;;;;;3.95;1.45;;;10.00;99.90;;;;;;5073423;28;20017;-45
2022/12/23 13:21:11;;;;;;;3.03;1.60;;;10.00;99.90;;;;;;5073108;28;20024;-45
2022/12/23 13:24:06;;;;;;;2.35;1.80;;;10.10;99.90;;;;;;5073256;28;20039;-45
2022/12/23 13:26:38;;;;;;;4.68;1.88;;;10.00;99.90;;;;;;5073046;28;20031;-45
2022/12/23 13:29:31;;;;;;;3.97;1.70;;;10.10;99.90;;;;;;5073318;28;20029;-45
2022/12/23 13:31:59;;;;;;;3.03;1.60;;;10.10;99.90;;;;;;5073099;28;20527;-45
2022/12/23 13:34:28;;;;;;;4.22;1.40;;;10.10;99.90;;;;;;5073146;28;20036;-45
2022/12/23 13:37:20;;;;;;;3.47;2.38;;;10.10;99.90;;;;;;5072823;28;20069;-44
2022/12/23 13:40:03;;;;;;;3.60;1.50;;;10.00;99.90;;;;;;5073140;28;20056;-45
2022/12/23 13:42:37;;;;;;;5.00;2.22;;;10.10;99.90;;;;;;5073148;28;20377;-45
2022/12/23 13:45:04;;;;;;;;;;;10.10;99.90;;;;;;5073648;28;20039;-45